Time;durP1;ratioP1;P1;durP2;ratioP2;P2;SDS_P1;SDS_P2;PMS_P1;PMS_P2;Temp;Humidity;BMP_temperature;BMP_pressure;BME280_temperature;BME280_humidity;BME280_pressure;Samples;Min_cycle;Max_cycle;Signal;HPM_P1;HPM_P2
2023/05/11 00:03:05;;;;;;;7.90;4.33;;;12.80;64.20;;;;;;10451182;28;20231;-85
2023/05/11 00:08:08;;;;;;;4.17;3.70;;;12.70;60.90;;;;;;10412723;28;20671;-85
2023/05/11 00:13:10;;;;;;;8.33;4.53;;;12.50;65.00;;;;;;10410471;28;20241;-85
2023/05/11 00:18:12;;;;;;;20.90;5.83;;;12.40;67.90;;;;;;10412816;28;20231;-85
2023/05/11 00:23:15;;;;;;;5.87;4.00;;;12.20;66.30;;;;;;10412285;28;20243;-85
2023/05/11 00:28:18;;;;;;;6.13;3.80;;;12.20;61.50;;;;;;10410283;28;20231;-85
2023/05/11 00:33:20;;;;;;;4.97;4.27;;;12.30;68.50;;;;;;10443363;28;20235;-85
2023/05/11 00:38:23;;;;;;;9.17;4.30;;;12.20;67.00;;;;;;10438502;28;20565;-85
2023/05/11 00:43:25;;;;;;;7.53;4.70;;;12.30;71.10;;;;;;10409970;28;20297;-85
2023/05/11 00:48:28;;;;;;;3.37;3.00;;;12.10;62.80;;;;;;10409821;28;20287;-85
2023/05/11 00:53:31;;;;;;;4.13;3.67;;;12.00;73.40;;;;;;10411367;28;20649;-85
2023/05/11 00:58:34;;;;;;;5.03;2.33;;;12.00;68.80;;;;;;10410018;28;20253;-85
2023/05/11 01:03:37;;;;;;;6.67;4.17;;;12.10;80.00;;;;;;10419095;28;20273;-85
2023/05/11 01:08:40;;;;;;;5.13;4.20;;;12.10;71.60;;;;;;10450396;28;20751;-85
2023/05/11 01:13:50;;;;;;;6.63;3.80;;;11.80;61.30;;;;;;10433395;28;20292;-85
2023/05/11 01:19:07;;;;;;;5.97;4.07;;;11.70;62.30;;;;;;10432254;28;20305;-85
2023/05/11 01:24:29;;;;;;;5.90;4.10;;;11.90;77.70;;;;;;10438698;28;20692;-85
2023/05/11 01:29:53;;;;;;;6.67;4.83;;;11.80;69.40;;;;;;10425320;28;20295;-85
2023/05/11 01:35:16;;;;;;;5.47;3.73;;;11.80;66.70;;;;;;10407384;28;20326;-85
2023/05/11 01:40:24;;;;;;;11.07;5.20;;;11.90;77.70;;;;;;10407053;28;20227;-85
2023/05/11 01:45:30;;;;;;;8.97;4.83;;;11.80;63.60;;;;;;10405945;28;20248;-85
2023/05/11 01:50:34;;;;;;;5.03;4.53;;;11.50;66.80;;;;;;10407465;28;20261;-85
2023/05/11 01:55:40;;;;;;;6.77;4.77;;;11.20;67.90;;;;;;10406948;28;20281;-85
2023/05/11 02:00:44;;;;;;;5.23;4.00;;;11.20;64.60;;;;;;10419292;28;20297;-85
2023/05/11 02:05:48;;;;;;;6.30;4.90;;;11.10;70.00;;;;;;10448067;28;20234;-85
2023/05/11 02:10:53;;;;;;;5.40;4.60;;;;;;;;;;10448216;28;20249;-85
2023/05/11 02:15:57;;;;;;;8.10;4.97;;;10.70;70.50;;;;;;10424908;28;20251;-85
2023/05/11 02:21:01;;;;;;;7.90;4.97;;;10.70;65.70;;;;;;10406436;28;20226;-85
2023/05/11 02:26:07;;;;;;;6.47;4.37;;;10.40;67.70;;;;;;10407522;28;20260;-85
2023/05/11 02:31:18;;;;;;;7.73;4.40;;;10.40;70.60;;;;;;10378108;28;20313;-85
2023/05/11 02:36:23;;;;;;;11.07;5.10;;;10.40;77.30;;;;;;10414271;28;21113;-85
2023/05/11 02:41:29;;;;;;;7.17;4.87;;;10.40;75.50;;;;;;10414257;28;20711;-85
2023/05/11 02:46:35;;;;;;;9.77;4.80;;;10.30;74.10;;;;;;10416173;28;20239;-85
2023/05/11 02:51:43;;;;;;;7.07;5.50;;;10.30;75.50;;;;;;10413185;28;20246;-85
2023/05/11 02:56:46;;;;;;;6.67;3.70;;;10.20;68.80;;;;;;10413839;28;20313;-85
2023/05/11 03:01:50;;;;;;;6.67;4.97;;;9.80;68.60;;;;;;10414697;28;20267;-85
2023/05/11 03:06:54;;;;;;;10.57;5.17;;;;;;;;;;10412959;28;20289;-85
2023/05/11 03:11:57;;;;;;;5.57;4.17;;;;;;;;;;10429632;28;20627;-84
2023/05/11 03:17:03;;;;;;;6.10;4.00;;;9.20;83.90;;;;;;10450585;28;20251;-85
2023/05/11 03:22:06;;;;;;;10.40;4.97;;;9.40;93.10;;;;;;10411777;28;20234;-85
2023/05/11 03:27:10;;;;;;;8.73;5.93;;;9.60;93.50;;;;;;10412666;28;20242;-84
2023/05/11 03:32:15;;;;;;;6.00;4.23;;;9.80;95.30;;;;;;10412457;28;20736;-85
2023/05/11 03:37:19;;;;;;;16.60;6.90;;;9.90;95.90;;;;;;10444527;28;20255;-85
2023/05/11 03:42:25;;;;;;;11.87;4.70;;;10.10;94.90;;;;;;10409564;28;20663;-85
2023/05/11 03:47:30;;;;;;;9.97;7.27;;;10.00;95.90;;;;;;10413436;28;20231;-85
2023/05/11 03:52:34;;;;;;;5.40;4.03;;;10.10;94.50;;;;;;10411136;28;20247;-84
2023/05/11 03:57:38;;;;;;;11.07;5.60;;;10.10;95.80;;;;;;10411494;28;20262;-85
2023/05/11 04:02:41;;;;;;;8.23;5.17;;;10.10;93.60;;;;;;10411206;28;20271;-85
2023/05/11 04:07:46;;;;;;;5.40;4.70;;;10.20;94.60;;;;;;10395030;28;20272;-85
2023/05/11 04:12:48;;;;;;;8.73;6.17;;;10.20;92.90;;;;;;10410456;28;20266;-84
2023/05/11 04:17:51;;;;;;;7.70;4.63;;;10.20;94.80;;;;;;10425090;28;20638;-85
2023/05/11 04:22:53;;;;;;;11.97;6.23;;;10.20;92.30;;;;;;10409988;28;20304;-84
2023/05/11 04:27:56;;;;;;;7.90;4.73;;;10.40;96.30;;;;;;10426267;28;20245;-85
2023/05/11 04:33:00;;;;;;;5.87;4.03;;;10.50;94.70;;;;;;10423587;28;20227;-84
2023/05/11 04:38:02;;;;;;;18.77;6.90;;;10.60;93.70;;;;;;10409946;28;20251;-84
2023/05/11 04:43:07;;;;;;;7.80;5.23;;;10.80;89.50;;;;;;10425040;28;20644;-84
2023/05/11 04:48:11;;;;;;;6.93;4.30;;;10.80;91.20;;;;;;10410189;28;20289;-85
2023/05/11 04:53:13;;;;;;;9.23;4.93;;;11.00;92.10;;;;;;10409619;28;20265;-85
2023/05/11 04:58:17;;;;;;;13.07;6.97;;;11.00;89.60;;;;;;10408532;28;20601;-85
2023/05/11 05:03:20;;;;;;;11.53;4.80;;;11.40;89.70;;;;;;10392160;28;20223;-84
2023/05/11 05:08:23;;;;;;;10.10;6.17;;;11.50;88.00;;;;;;10442196;28;20278;-85
2023/05/11 05:13:26;;;;;;;13.27;5.30;;;11.80;87.40;;;;;;10418845;28;20697;-85
2023/05/11 05:18:28;;;;;;;8.00;4.00;;;12.20;79.70;;;;;;10408199;28;20254;-85
2023/05/11 05:23:31;;;;;;;11.90;5.30;;;12.40;89.50;;;;;;10388303;28;20272;-85
2023/05/11 05:28:35;;;;;;;8.90;4.63;;;12.50;82.60;;;;;;10398465;28;20285;-84
2023/05/11 05:33:38;;;;;;;9.07;5.87;;;12.70;90.50;;;;;;10404711;28;20227;-85
2023/05/11 05:38:41;;;;;;;11.97;5.87;;;12.90;86.80;;;;;;10404431;28;20293;-85
2023/05/11 05:43:44;;;;;;;17.27;5.80;;;12.90;83.70;;;;;;10407185;28;20251;-85
2023/05/11 05:48:47;;;;;;;17.27;6.33;;;13.40;67.40;;;;;;10397187;28;20297;-85
2023/05/11 05:53:50;;;;;;;18.40;6.53;;;13.60;65.60;;;;;;10404143;28;20226;-85
2023/05/11 05:58:52;;;;;;;9.90;6.73;;;13.80;63.30;;;;;;10427349;28;20280;-85
2023/05/11 06:03:56;;;;;;;11.43;7.33;;;13.80;61.90;;;;;;10391395;28;20665;-85
2023/05/11 06:08:59;;;;;;;8.77;6.63;;;13.70;61.40;;;;;;10406320;28;20207;-85
2023/05/11 06:14:02;;;;;;;8.63;5.97;;;13.70;57.10;;;;;;10406824;28;20258;-85
2023/05/11 06:19:06;;;;;;;8.57;5.77;;;13.80;57.60;;;;;;10408382;28;20250;-85
2023/05/11 06:24:09;;;;;;;11.23;6.60;;;13.80;61.10;;;;;;10407340;28;20234;-85
2023/05/11 06:29:12;;;;;;;9.93;5.77;;;13.90;56.00;;;;;;10440249;28;20588;-85
2023/05/11 06:34:15;;;;;;;12.27;5.20;;;14.10;56.60;;;;;;10407274;28;20234;-87
2023/05/11 06:39:18;;;;;;;8.57;6.07;;;14.20;53.40;;;;;;10412588;28;20312;-85
2023/05/11 06:44:21;;;;;;;8.60;5.57;;;;;;;;;;10448249;28;20322;-86
2023/05/11 06:49:27;;;;;;;20.13;6.70;;;14.50;53.40;;;;;;10448368;28;20235;-87
2023/05/11 06:54:30;;;;;;;6.07;4.53;;;15.10;59.80;;;;;;10409788;28;20247;-86
2023/05/11 06:59:32;;;;;;;7.00;5.67;;;15.10;60.70;;;;;;10405940;28;20348;-85
2023/05/11 07:04:36;;;;;;;8.17;6.03;;;15.40;55.90;;;;;;10420798;28;20669;-86
2023/05/11 07:09:38;;;;;;;6.20;5.00;;;15.50;54.50;;;;;;10446193;28;20234;-83
2023/05/11 07:14:43;;;;;;;10.80;6.90;;;15.60;54.90;;;;;;10375388;28;20240;-83
2023/05/11 07:19:46;;;;;;;10.47;6.60;;;15.80;53.80;;;;;;10388064;28;20269;-84
2023/05/11 07:24:48;;;;;;;6.67;5.00;;;16.00;48.10;;;;;;10411897;28;20231;-85
2023/05/11 07:29:51;;;;;;;9.30;5.13;;;16.10;51.40;;;;;;10440689;28;20231;-86
2023/05/11 07:34:53;;;;;;;12.47;6.77;;;16.10;51.20;;;;;;10419325;28;20266;-84
2023/05/11 07:39:56;;;;;;;6.50;4.57;;;16.30;43.90;;;;;;10412247;28;20267;-84
2023/05/11 07:44:59;;;;;;;7.63;5.03;;;16.40;47.20;;;;;;10418105;28;20234;-84
2023/05/11 07:50:01;;;;;;;8.20;5.43;;;16.50;45.90;;;;;;10421617;28;20228;-86
2023/05/11 07:55:04;;;;;;;6.73;5.03;;;16.70;49.10;;;;;;10409477;28;20235;-85
2023/05/11 08:00:08;;;;;;;16.30;6.10;;;16.90;48.80;;;;;;10411726;28;20720;-84
2023/05/11 08:05:16;;;;;;;8.53;5.23;;;17.00;46.40;;;;;;10410858;28;20287;-83
2023/05/11 08:10:19;;;;;;;7.70;4.73;;;17.30;44.70;;;;;;10417675;28;20766;-82
2023/05/11 08:15:21;;;;;;;10.77;4.20;;;17.40;42.10;;;;;;10417140;28;20243;-84
2023/05/11 08:20:24;;;;;;;6.67;3.90;;;17.40;39.90;;;;;;10410007;28;20231;-84
2023/05/11 08:25:26;;;;;;;6.63;4.50;;;17.60;42.00;;;;;;10446787;28;20296;-83
2023/05/11 08:30:29;;;;;;;10.57;4.50;;;17.80;42.80;;;;;;10418905;28;20262;-84
2023/05/11 08:35:32;;;;;;;7.10;4.20;;;17.90;38.90;;;;;;10409662;28;20255;-85
2023/05/11 08:40:34;;;;;;;8.23;4.47;;;18.00;35.10;;;;;;10407709;28;20262;-85
2023/05/11 08:45:37;;;;;;;6.90;4.07;;;18.10;36.20;;;;;;10408133;28;20648;-83
2023/05/11 08:50:46;;;;;;;6.90;4.00;;;18.20;36.70;;;;;;10408979;28;20239;-84
2023/05/11 08:55:50;;;;;;;6.63;4.27;;;18.20;35.40;;;;;;10408725;28;20313;-84
2023/05/11 09:00:53;;;;;;;6.33;4.07;;;18.20;32.30;;;;;;10442521;28;20239;-84
2023/05/11 09:05:57;;;;;;;5.77;4.63;;;18.40;37.60;;;;;;10440429;28;20234;-84
2023/05/11 09:11:00;;;;;;;6.50;4.30;;;18.50;38.60;;;;;;10410023;28;20239;-84
2023/05/11 09:16:02;;;;;;;7.00;4.97;;;18.50;35.90;;;;;;10445438;28;20266;-85
2023/05/11 09:21:06;;;;;;;7.22;5.25;;;18.40;33.20;;;;;;10449946;28;20631;-85
2023/05/11 09:26:35;;;;;;;13.43;4.63;;;18.30;36.20;;;;;;10433843;28;20254;-84
2023/05/11 09:31:42;;;;;;;5.80;3.13;;;18.40;33.10;;;;;;10405621;28;20244;-84
2023/05/11 09:36:50;;;;;;;4.87;3.63;;;18.40;35.20;;;;;;10414230;28;20280;-84
2023/05/11 09:42:30;;;;;;;3.27;2.97;;;18.50;35.30;;;;;;10424348;28;20264;-83
2023/05/11 09:47:41;;;;;;;5.00;4.27;;;18.80;31.20;;;;;;10401775;28;20280;-84
2023/05/11 09:52:50;;;;;;;8.13;3.80;;;18.90;33.90;;;;;;10433281;28;20231;-84
2023/05/11 09:57:56;;;;;;;5.90;3.83;;;19.00;29.90;;;;;;10406828;28;20313;-86
2023/05/11 10:03:03;;;;;;;11.40;4.18;;;19.20;31.80;;;;;;10412561;28;20604;-85
2023/05/11 10:08:06;;;;;;;4.57;3.20;;;19.40;29.20;;;;;;10406825;28;20288;-85
2023/05/11 10:13:09;;;;;;;13.77;3.93;;;;;;;;;;10407690;28;20254;-86
2023/05/11 10:18:11;;;;;;;15.57;3.73;;;19.30;28.60;;;;;;10407034;28;20269;-86
2023/05/11 10:23:16;;;;;;;4.47;3.50;;;19.40;29.90;;;;;;10407071;28;20289;-85
2023/05/11 10:28:22;;;;;;;8.40;4.33;;;19.50;28.90;;;;;;10407951;28;20656;-87
2023/05/11 10:33:25;;;;;;;3.90;3.13;;;19.60;26.80;;;;;;10405541;28;20236;-88
2023/05/11 10:38:28;;;;;;;13.23;4.73;;;19.70;29.40;;;;;;10407588;28;21001;-87
2023/05/11 10:43:56;;;;;;;6.83;3.60;;;19.80;27.50;;;;;;10446181;28;20262;-86
2023/05/11 10:49:12;;;;;;;4.87;3.47;;;19.80;26.30;;;;;;10445192;28;20252;-84
2023/05/11 10:54:59;;;;;;;3.90;3.00;;;19.80;25.20;;;;;;10453433;28;20291;-85
2023/05/11 11:00:15;;;;;;;3.57;2.57;;;19.80;27.10;;;;;;10417671;28;20690;-83
2023/05/11 11:05:35;;;;;;;6.47;3.77;;;19.60;25.50;;;;;;10416104;28;20238;-83
2023/05/11 11:10:45;;;;;;;5.43;3.20;;;19.70;25.30;;;;;;10410123;28;20227;-83
2023/05/11 11:15:56;;;;;;;3.87;3.47;;;19.70;24.50;;;;;;10385012;28;20277;-83
2023/05/11 11:21:00;;;;;;;6.93;3.00;;;19.60;25.50;;;;;;10401218;28;20223;-83
2023/05/11 11:26:02;;;;;;;4.77;3.87;;;19.60;24.90;;;;;;10414375;28;20293;-83
2023/05/11 11:31:24;;;;;;;8.00;3.67;;;19.80;26.30;;;;;;10435572;28;20296;-83
2023/05/11 11:36:57;;;;;;;3.40;3.10;;;19.70;26.50;;;;;;10450159;28;20315;-82
2023/05/11 11:42:05;;;;;;;3.70;2.93;;;19.70;24.90;;;;;;10449944;28;20792;-82
2023/05/11 11:47:21;;;;;;;4.20;3.23;;;19.70;25.60;;;;;;10447294;28;20230;-82
2023/05/11 11:52:27;;;;;;;3.23;2.67;;;19.80;23.70;;;;;;10425120;28;20249;-82
2023/05/11 11:57:32;;;;;;;7.93;3.17;;;19.70;23.50;;;;;;10410645;28;20309;-82
2023/05/11 12:02:42;;;;;;;4.17;3.50;;;19.60;23.10;;;;;;10412316;28;20235;-82
2023/05/11 12:07:47;;;;;;;5.30;3.30;;;19.80;24.10;;;;;;10405460;28;20223;-82
2023/05/11 12:12:53;;;;;;;6.70;3.03;;;19.90;21.10;;;;;;10399485;28;20261;-81
2023/05/11 12:17:56;;;;;;;7.17;3.23;;;20.00;23.00;;;;;;10436977;28;20318;-82
2023/05/11 12:23:00;;;;;;;4.33;3.10;;;20.00;20.90;;;;;;10409558;28;20767;-86
2023/05/11 12:28:03;;;;;;;3.67;2.90;;;20.00;22.50;;;;;;10410712;28;20243;-84
2023/05/11 12:33:06;;;;;;;5.40;3.00;;;20.00;23.50;;;;;;10419494;28;20300;-84
2023/05/11 12:38:10;;;;;;;4.00;3.07;;;20.00;25.50;;;;;;10447209;28;20254;-84
2023/05/11 12:43:17;;;;;;;3.97;2.90;;;20.00;23.50;;;;;;10406284;28;20769;-84
2023/05/11 12:48:20;;;;;;;4.90;3.63;;;20.10;25.40;;;;;;10403219;28;20226;-84
2023/05/11 12:53:22;;;;;;;19.57;4.80;;;20.10;22.50;;;;;;10432465;28;20621;-84
2023/05/11 12:58:25;;;;;;;5.73;3.33;;;20.30;21.00;;;;;;10412645;28;20668;-84
2023/05/11 13:03:29;;;;;;;11.23;3.70;;;20.40;21.70;;;;;;10407347;28;20246;-84
2023/05/11 13:08:36;;;;;;;4.00;2.60;;;20.50;21.60;;;;;;10406823;28;20239;-84
2023/05/11 13:13:39;;;;;;;3.73;3.00;;;20.50;21.50;;;;;;10397937;28;20258;-84
2023/05/11 13:18:56;;;;;;;4.97;2.93;;;20.70;20.20;;;;;;10372442;28;20722;-84
2023/05/11 13:24:00;;;;;;;4.23;3.23;;;20.70;21.80;;;;;;10404520;28;20250;-85
2023/05/11 13:29:02;;;;;;;2.87;2.67;;;20.70;21.30;;;;;;10403602;28;20744;-84
2023/05/11 13:34:12;;;;;;;4.13;3.40;;;20.80;21.30;;;;;;10383429;28;20318;-85
2023/05/11 13:39:15;;;;;;;4.93;2.60;;;20.80;23.10;;;;;;10385999;28;20316;-84
2023/05/11 13:44:18;;;;;;;4.00;3.20;;;20.70;21.00;;;;;;10416619;28;20238;-84
2023/05/11 13:49:21;;;;;;;4.03;3.43;;;20.80;22.10;;;;;;10428815;28;20234;-85
2023/05/11 13:54:25;;;;;;;3.97;3.03;;;20.90;21.60;;;;;;10410716;28;20284;-85
2023/05/11 13:59:27;;;;;;;3.93;2.93;;;21.00;21.50;;;;;;10439477;28;20250;-87
2023/05/11 14:04:30;;;;;;;3.90;2.70;;;20.50;19.40;;;;;;10410504;28;20680;-90
2023/05/11 14:09:32;;;;;;;4.60;3.17;;;20.30;23.00;;;;;;10405426;28;20235;-87
2023/05/11 14:14:35;;;;;;;5.93;3.27;;;20.10;19.90;;;;;;10406713;28;20262;-88
2023/05/11 14:19:38;;;;;;;3.80;3.47;;;20.00;21.60;;;;;;10415539;28;20246;-88
2023/05/11 14:24:40;;;;;;;3.10;2.53;;;19.80;20.80;;;;;;10408785;28;20606;-88
2023/05/11 14:29:44;;;;;;;10.07;3.33;;;19.90;23.70;;;;;;10401806;28;21012;-89
2023/05/11 14:34:47;;;;;;;21.67;4.13;;;19.90;23.10;;;;;;10428502;28;20211;-87
2023/05/11 14:39:50;;;;;;;5.63;3.07;;;19.90;21.50;;;;;;10412689;28;20262;-87
2023/05/11 14:44:52;;;;;;;6.93;3.47;;;19.80;21.20;;;;;;10413841;28;20239;-88
2023/05/11 14:49:55;;;;;;;13.07;4.43;;;19.90;20.90;;;;;;10414632;28;20620;-88
2023/05/11 14:55:00;;;;;;;9.47;3.70;;;19.80;23.90;;;;;;10415768;28;20381;-88
2023/05/11 15:00:03;;;;;;;7.03;3.63;;;19.80;21.90;;;;;;10415694;28;20259;-87
2023/05/11 15:05:06;;;;;;;8.77;3.30;;;19.80;19.80;;;;;;10400301;28;20596;-85
2023/05/11 15:10:11;;;;;;;9.30;4.17;;;19.70;23.70;;;;;;10435994;28;20238;-88
2023/05/11 15:15:13;;;;;;;17.87;3.83;;;19.80;23.90;;;;;;10456027;28;20246;-87
2023/05/11 15:20:17;;;;;;;3.93;3.37;;;19.70;20.20;;;;;;10421434;28;20311;-88
2023/05/11 15:25:20;;;;;;;7.17;3.50;;;19.80;21.70;;;;;;10424170;28;20239;-86
2023/05/11 15:30:22;;;;;;;5.07;2.57;;;19.80;21.90;;;;;;10413871;28;20238;-82
2023/05/11 15:35:25;;;;;;;6.47;2.80;;;19.80;19.10;;;;;;10429324;28;20225;-83
2023/05/11 15:40:27;;;;;;;6.57;3.10;;;19.80;20.00;;;;;;10439672;28;20320;-83
2023/05/11 15:45:30;;;;;;;6.10;3.50;;;19.70;21.10;;;;;;10427608;28;20234;-84
2023/05/11 15:50:33;;;;;;;4.43;2.90;;;19.60;23.00;;;;;;10069601;28;10000109;-83
2023/05/11 15:55:35;;;;;;;8.60;3.33;;;19.60;23.60;;;;;;10414554;28;20227;-84
2023/05/11 16:00:38;;;;;;;3.97;3.17;;;19.50;22.20;;;;;;10414266;28;20282;-83
2023/05/11 16:05:41;;;;;;;24.27;4.67;;;19.40;22.90;;;;;;10415753;28;20239;-84
2023/05/11 16:10:43;;;;;;;5.80;2.80;;;19.40;21.00;;;;;;10420246;28;20235;-84
2023/05/11 16:15:46;;;;;;;4.37;3.17;;;19.40;20.70;;;;;;10432086;28;20298;-84
2023/05/11 16:20:48;;;;;;;6.27;3.20;;;19.40;20.60;;;;;;10407857;28;20243;-84
2023/05/11 16:25:52;;;;;;;6.70;3.10;;;19.40;22.00;;;;;;10413766;28;20230;-85
2023/05/11 16:30:54;;;;;;;4.13;2.77;;;19.50;21.40;;;;;;10423172;28;20637;-83
2023/05/11 16:36:00;;;;;;;2.57;2.37;;;19.50;22.10;;;;;;10420020;28;20284;-83
2023/05/11 16:41:03;;;;;;;7.97;3.47;;;19.50;22.90;;;;;;10416869;28;20262;-84
2023/05/11 16:46:06;;;;;;;4.63;4.13;;;19.50;21.50;;;;;;10409731;28;20285;-84
2023/05/11 16:51:08;;;;;;;9.97;5.13;;;19.50;23.10;;;;;;10400470;28;20239;-84
2023/05/11 16:56:12;;;;;;;7.47;3.63;;;19.40;21.50;;;;;;10410263;28;20644;-86
2023/05/11 17:01:15;;;;;;;13.03;3.97;;;19.50;22.40;;;;;;10422572;28;20293;-83
2023/05/11 17:06:20;;;;;;;9.30;3.30;;;19.40;23.30;;;;;;10429342;28;20688;-82
2023/05/11 17:11:23;;;;;;;7.27;3.60;;;19.30;23.80;;;;;;10416221;28;20301;-83
2023/05/11 17:16:25;;;;;;;5.07;3.43;;;19.20;21.60;;;;;;10438147;28;20636;-84
2023/05/11 17:21:28;;;;;;;11.53;3.33;;;19.00;23.90;;;;;;10446604;28;20658;-84
2023/05/11 17:26:31;;;;;;;14.13;3.77;;;18.90;24.70;;;;;;10408961;28;20714;-84
2023/05/11 17:31:49;;;;;;;5.87;3.33;;;18.70;22.60;;;;;;10438333;28;20765;-83
2023/05/11 17:36:53;;;;;;;6.67;4.33;;;18.50;24.10;;;;;;10391492;28;20236;-83
2023/05/11 17:41:56;;;;;;;7.77;3.83;;;18.20;23.70;;;;;;10413468;28;20659;-84
2023/05/11 17:47:04;;;;;;;12.03;4.20;;;18.00;23.90;;;;;;10429416;28;20242;-87
2023/05/11 17:52:10;;;;;;;9.83;4.37;;;17.80;24.10;;;;;;10449106;28;20325;-85
2023/05/11 17:57:12;;;;;;;12.13;3.60;;;17.50;24.80;;;;;;10444241;28;20273;-85
2023/05/11 18:02:15;;;;;;;7.77;3.27;;;17.30;25.10;;;;;;10415813;28;20239;-83
2023/05/11 18:07:19;;;;;;;6.87;3.37;;;17.10;27.30;;;;;;10056204;28;9999580;-84
2023/05/11 18:12:21;;;;;;;9.47;5.83;;;17.00;27.40;;;;;;10412750;28;20228;-84
2023/05/11 18:17:24;;;;;;;8.57;3.83;;;16.80;26.20;;;;;;10405203;28;20284;-85
2023/05/11 18:22:29;;;;;;;8.47;4.30;;;16.70;28.50;;;;;;10399526;28;20266;-83
2023/05/11 18:27:32;;;;;;;5.13;4.10;;;16.50;27.50;;;;;;10415683;28;20235;-83
2023/05/11 18:32:35;;;;;;;10.27;6.20;;;16.40;30.90;;;;;;10418900;28;20288;-85
2023/05/11 18:37:37;;;;;;;14.87;6.17;;;16.30;30.30;;;;;;10396017;28;20673;-84
2023/05/11 18:42:40;;;;;;;8.17;4.37;;;16.10;29.60;;;;;;10408358;28;20312;-85
2023/05/11 18:47:44;;;;;;;20.93;6.17;;;15.80;32.30;;;;;;10409996;28;20647;-84
2023/05/11 18:52:47;;;;;;;8.47;4.73;;;15.70;32.60;;;;;;10447527;28;20246;-85
2023/05/11 18:58:02;;;;;;;;;;;;;;;;;;;;;
2023/05/11 19:03:06;;;;;;;11.60;3.97;;;15.30;33.60;;;;;;10406176;28;20273;-85
2023/05/11 19:08:09;;;;;;;22.03;4.43;;;15.40;52.20;;;;;;10416283;28;20250;-84
2023/05/11 19:13:12;;;;;;;8.17;3.87;;;15.30;53.20;;;;;;10430916;28;20651;-84
2023/05/11 19:18:16;;;;;;;7.17;4.67;;;15.10;46.50;;;;;;10431468;28;20255;-83
2023/05/11 19:23:19;;;;;;;11.90;5.47;;;14.70;39.20;;;;;;10431436;28;20236;-85
2023/05/11 19:28:21;;;;;;;4.40;4.00;;;14.50;39.80;;;;;;10414973;28;20652;-83
2023/05/11 19:33:24;;;;;;;10.13;4.20;;;14.50;40.70;;;;;;10441440;28;20288;-84
2023/05/11 19:38:28;;;;;;;7.20;3.90;;;14.30;41.80;;;;;;10447348;28;20235;-88
2023/05/11 19:43:32;;;;;;;4.13;3.50;;;;;;;;;;10412137;28;20259;-86
2023/05/11 19:48:34;;;;;;;8.40;4.33;;;14.00;42.50;;;;;;10410795;28;20306;-87
2023/05/11 19:53:37;;;;;;;12.57;5.03;;;13.80;43.00;;;;;;10450453;28;20223;-83
2023/05/11 19:58:40;;;;;;;12.47;4.43;;;13.60;44.40;;;;;;10417015;28;20281;-83
2023/05/11 20:03:43;;;;;;;8.87;5.23;;;13.50;45.10;;;;;;10411522;28;20227;-86
2023/05/11 20:08:45;;;;;;;7.80;4.23;;;13.50;46.80;;;;;;10391910;28;20577;-86
2023/05/11 20:13:52;;;;;;;5.37;4.87;;;13.40;46.80;;;;;;10412578;28;20227;-85
2023/05/11 20:18:54;;;;;;;8.17;3.93;;;13.30;49.20;;;;;;10411650;28;20369;-88
2023/05/11 20:23:58;;;;;;;6.20;3.97;;;13.20;51.10;;;;;;10411941;28;20297;-88
2023/05/11 20:29:00;;;;;;;6.97;4.43;;;13.20;50.00;;;;;;10410240;28;20297;-89
2023/05/11 20:34:03;;;;;;;6.17;4.40;;;13.20;47.30;;;;;;10423420;28;20231;-89
2023/05/11 20:39:09;;;;;;;8.83;4.47;;;13.20;47.80;;;;;;10452273;28;20255;-89
2023/05/11 20:44:14;;;;;;;5.60;4.20;;;13.30;50.10;;;;;;10426317;28;20380;-84
2023/05/11 20:49:17;;;;;;;6.40;3.47;;;13.30;50.10;;;;;;10410047;28;20239;-86
2023/05/11 20:54:36;;;;;;;4.57;3.47;;;13.30;53.50;;;;;;10414549;28;20235;-86
2023/05/11 20:59:38;;;;;;;9.77;4.03;;;13.40;51.30;;;;;;10410153;28;20259;-86
2023/05/11 21:04:45;;;;;;;6.67;3.90;;;13.40;53.60;;;;;;10408550;28;20653;-85
2023/05/11 21:09:48;;;;;;;4.87;4.17;;;13.50;54.40;;;;;;10425414;28;20261;-84
2023/05/11 21:14:50;;;;;;;10.97;4.13;;;13.40;52.60;;;;;;10443505;28;20691;-86
2023/05/11 21:19:53;;;;;;;8.00;4.17;;;13.20;52.00;;;;;;10444559;28;20297;-85
2023/05/11 21:24:55;;;;;;;7.90;4.60;;;13.20;51.30;;;;;;10407855;28;20231;-85
2023/05/11 21:29:57;;;;;;;5.53;4.67;;;13.20;50.00;;;;;;10442643;28;20238;-85
2023/05/11 21:35:00;;;;;;;6.60;5.20;;;13.20;53.20;;;;;;10449958;28;20238;-84
2023/05/11 21:40:03;;;;;;;5.00;3.60;;;13.20;50.70;;;;;;10419375;28;20745;-89
2023/05/11 21:45:07;;;;;;;6.43;4.87;;;13.20;53.20;;;;;;10416480;28;20270;-86
2023/05/11 21:50:10;;;;;;;4.47;3.83;;;13.10;54.70;;;;;;10462878;28;20304;-86
2023/05/11 21:55:13;;;;;;;8.20;4.17;;;13.00;53.40;;;;;;10428958;28;20289;-86
2023/05/11 22:00:16;;;;;;;5.80;4.10;;;12.90;51.70;;;;;;10408760;28;20317;-87
2023/05/11 22:05:20;;;;;;;5.40;4.33;;;12.80;55.20;;;;;;10405924;28;20243;-85
2023/05/11 22:10:24;;;;;;;4.97;3.53;;;;;;;;;;10434278;28;20686;-86
2023/05/11 22:15:27;;;;;;;6.17;4.30;;;12.70;61.10;;;;;;10402525;28;20235;-85
2023/05/11 22:20:30;;;;;;;8.27;4.20;;;12.80;62.20;;;;;;10379764;28;20747;-84
2023/05/11 22:25:33;;;;;;;9.33;4.43;;;12.60;58.00;;;;;;10398748;28;20249;-85
2023/05/11 22:30:36;;;;;;;6.67;4.60;;;12.60;58.30;;;;;;10406695;28;20299;-84
2023/05/11 22:35:39;;;;;;;6.10;4.37;;;12.40;54.60;;;;;;10399311;28;20293;-84
2023/05/11 22:40:41;;;;;;;7.07;5.30;;;12.10;54.00;;;;;;10394536;28;20266;-84
2023/05/11 22:45:44;;;;;;;6.97;5.10;;;11.90;56.30;;;;;;10404796;28;20900;-84
2023/05/11 22:50:47;;;;;;;6.73;5.60;;;;;;;;;;10412556;28;20641;-84
2023/05/11 22:55:49;;;;;;;6.67;4.97;;;11.60;60.20;;;;;;10412877;28;20242;-86
2023/05/11 23:00:54;;;;;;;8.97;5.20;;;11.30;62.00;;;;;;10413526;28;20300;-87
2023/05/11 23:05:57;;;;;;;5.43;4.93;;;11.00;64.70;;;;;;10414606;28;20224;-87
2023/05/11 23:10:59;;;;;;;8.33;4.57;;;10.80;66.60;;;;;;10421272;28;20234;-86
2023/05/11 23:16:03;;;;;;;6.47;4.57;;;10.70;66.70;;;;;;10446745;28;20280;-86
2023/05/11 23:21:07;;;;;;;7.30;4.70;;;;;;;;;;10419267;28;20679;-86
2023/05/11 23:26:09;;;;;;;10.97;5.17;;;10.20;72.00;;;;;;10414083;28;20220;-86
2023/05/11 23:31:12;;;;;;;9.07;4.80;;;9.90;76.40;;;;;;10413518;28;20233;-86
2023/05/11 23:36:14;;;;;;;7.83;4.53;;;9.70;80.40;;;;;;10412949;28;20238;-86
2023/05/11 23:41:17;;;;;;;6.83;5.33;;;9.60;82.40;;;;;;10397036;28;20268;-86
2023/05/11 23:46:19;;;;;;;8.03;4.67;;;9.50;85.20;;;;;;10403045;28;20235;-86
2023/05/11 23:51:22;;;;;;;8.93;5.20;;;9.30;87.00;;;;;;10411838;28;20620;-86
2023/05/11 23:56:25;;;;;;;7.57;5.30;;;9.10;91.10;;;;;;10411353;28;20287;-86
